sensor_id;sensor_type;location;lat;lon;timestamp;P1;durP1;ratioP1;P2;durP2;ratioP2
4519;SDS011;2272;49.226;8.108;2023-02-28T00:00:50;3.97;;;2.33;;
4519;SDS011;2272;49.226;8.108;2023-02-28T00:03:17;2.40;;;2.03;;
4519;SDS011;2272;49.226;8.108;2023-02-28T00:05:44;2.00;;;1.90;;
4519;SDS011;2272;49.226;8.108;2023-02-28T00:08:11;2.93;;;2.40;;
4519;SDS011;2272;49.226;8.108;2023-02-28T00:10:38;3.23;;;2.20;;
4519;SDS011;2272;49.226;8.108;2023-02-28T00:13:06;1.83;;;1.73;;
4519;SDS011;2272;49.226;8.108;2023-02-28T00:15:33;1.97;;;1.70;;
4519;SDS011;2272;49.226;8.108;2023-02-28T00:18:00;3.07;;;2.23;;
4519;SDS011;2272;49.226;8.108;2023-02-28T00:20:27;1.80;;;1.70;;
4519;SDS011;2272;49.226;8.108;2023-02-28T00:22:54;2.57;;;2.10;;
4519;SDS011;2272;49.226;8.108;2023-02-28T00:25:22;1.70;;;1.70;;
4519;SDS011;2272;49.226;8.108;2023-02-28T00:27:50;2.27;;;2.13;;
4519;SDS011;2272;49.226;8.108;2023-02-28T00:30:19;2.47;;;2.27;;
4519;SDS011;2272;49.226;8.108;2023-02-28T00:32:48;1.77;;;1.67;;
4519;SDS011;2272;49.226;8.108;2023-02-28T00:35:15;2.20;;;2.00;;
4519;SDS011;2272;49.226;8.108;2023-02-28T00:37:42;3.43;;;2.30;;
4519;SDS011;2272;49.226;8.108;2023-02-28T00:40:09;4.43;;;2.23;;
4519;SDS011;2272;49.226;8.108;2023-02-28T00:42:37;2.40;;;2.20;;
4519;SDS011;2272;49.226;8.108;2023-02-28T00:45:05;4.60;;;2.13;;
4519;SDS011;2272;49.226;8.108;2023-02-28T00:47:35;1.70;;;1.60;;
4519;SDS011;2272;49.226;8.108;2023-02-28T00:50:01;3.90;;;2.63;;
4519;SDS011;2272;49.226;8.108;2023-02-28T00:52:29;3.03;;;2.17;;
4519;SDS011;2272;49.226;8.108;2023-02-28T00:54:55;2.60;;;2.40;;
4519;SDS011;2272;49.226;8.108;2023-02-28T00:57:22;2.60;;;2.33;;
4519;SDS011;2272;49.226;8.108;2023-02-28T00:59:49;1.77;;;1.67;;
4519;SDS011;2272;49.226;8.108;2023-02-28T01:02:16;2.10;;;1.93;;
4519;SDS011;2272;49.226;8.108;2023-02-28T01:04:44;3.40;;;2.00;;
4519;SDS011;2272;49.226;8.108;2023-02-28T01:07:11;2.50;;;2.10;;
4519;SDS011;2272;49.226;8.108;2023-02-28T01:09:39;4.93;;;2.53;;
4519;SDS011;2272;49.226;8.108;2023-02-28T01:12:06;2.33;;;2.10;;
4519;SDS011;2272;49.226;8.108;2023-02-28T01:14:33;3.93;;;2.30;;
4519;SDS011;2272;49.226;8.108;2023-02-28T01:17:01;2.33;;;2.07;;
4519;SDS011;2272;49.226;8.108;2023-02-28T01:19:28;4.10;;;2.00;;
4519;SDS011;2272;49.226;8.108;2023-02-28T01:21:56;7.40;;;2.70;;
4519;SDS011;2272;49.226;8.108;2023-02-28T01:24:22;2.60;;;2.40;;
4519;SDS011;2272;49.226;8.108;2023-02-28T01:26:49;2.50;;;2.20;;
4519;SDS011;2272;49.226;8.108;2023-02-28T01:29:15;2.27;;;2.17;;
4519;SDS011;2272;49.226;8.108;2023-02-28T01:31:42;11.40;;;2.97;;
4519;SDS011;2272;49.226;8.108;2023-02-28T01:34:09;3.53;;;2.70;;
4519;SDS011;2272;49.226;8.108;2023-02-28T01:36:35;2.33;;;2.23;;
4519;SDS011;2272;49.226;8.108;2023-02-28T01:39:03;2.60;;;2.37;;
4519;SDS011;2272;49.226;8.108;2023-02-28T01:41:31;2.10;;;1.90;;
4519;SDS011;2272;49.226;8.108;2023-02-28T01:44:00;2.30;;;2.20;;
4519;SDS011;2272;49.226;8.108;2023-02-28T01:46:30;4.20;;;2.23;;
4519;SDS011;2272;49.226;8.108;2023-02-28T01:49:00;2.40;;;2.20;;
4519;SDS011;2272;49.226;8.108;2023-02-28T01:51:33;4.10;;;2.27;;
4519;SDS011;2272;49.226;8.108;2023-02-28T01:54:05;2.97;;;2.77;;
4519;SDS011;2272;49.226;8.108;2023-02-28T01:56:38;2.70;;;2.50;;
4519;SDS011;2272;49.226;8.108;2023-02-28T01:59:08;3.07;;;2.83;;
4519;SDS011;2272;49.226;8.108;2023-02-28T02:01:35;3.20;;;3.00;;
4519;SDS011;2272;49.226;8.108;2023-02-28T02:04:02;2.77;;;2.57;;
4519;SDS011;2272;49.226;8.108;2023-02-28T02:06:30;3.80;;;3.03;;
4519;SDS011;2272;49.226;8.108;2023-02-28T02:09:02;2.50;;;2.30;;
4519;SDS011;2272;49.226;8.108;2023-02-28T02:11:30;3.97;;;2.80;;
4519;SDS011;2272;49.226;8.108;2023-02-28T02:17:02;3.47;;;3.17;;
4519;SDS011;2272;49.226;8.108;2023-02-28T02:22:49;3.20;;;2.60;;
4519;SDS011;2272;49.226;8.108;2023-02-28T02:25:31;3.53;;;2.60;;
4519;SDS011;2272;49.226;8.108;2023-02-28T02:28:11;4.37;;;3.07;;
4519;SDS011;2272;49.226;8.108;2023-02-28T02:31:14;2.90;;;2.80;;
4519;SDS011;2272;49.226;8.108;2023-02-28T02:34:18;3.40;;;2.83;;
4519;SDS011;2272;49.226;8.108;2023-02-28T02:36:53;3.13;;;2.93;;
4519;SDS011;2272;49.226;8.108;2023-02-28T02:39:30;2.97;;;2.77;;
4519;SDS011;2272;49.226;8.108;2023-02-28T02:42:03;3.40;;;3.10;;
4519;SDS011;2272;49.226;8.108;2023-02-28T02:44:37;3.13;;;2.93;;
4519;SDS011;2272;49.226;8.108;2023-02-28T02:47:10;3.37;;;3.07;;
4519;SDS011;2272;49.226;8.108;2023-02-28T02:49:42;4.27;;;3.90;;
4519;SDS011;2272;49.226;8.108;2023-02-28T02:52:13;4.20;;;3.20;;
4519;SDS011;2272;49.226;8.108;2023-02-28T02:54:44;7.50;;;3.70;;
4519;SDS011;2272;49.226;8.108;2023-02-28T02:57:14;3.47;;;3.27;;
4519;SDS011;2272;49.226;8.108;2023-02-28T02:59:47;4.53;;;4.00;;
4519;SDS011;2272;49.226;8.108;2023-02-28T03:02:15;4.67;;;3.33;;
4519;SDS011;2272;49.226;8.108;2023-02-28T03:04:45;3.47;;;3.17;;
4519;SDS011;2272;49.226;8.108;2023-02-28T03:07:16;3.70;;;3.47;;
4519;SDS011;2272;49.226;8.108;2023-02-28T03:09:49;4.73;;;3.30;;
4519;SDS011;2272;49.226;8.108;2023-02-28T03:12:17;3.70;;;3.50;;
4519;SDS011;2272;49.226;8.108;2023-02-28T03:14:48;3.83;;;3.47;;
4519;SDS011;2272;49.226;8.108;2023-02-28T03:17:35;4.00;;;3.70;;
4519;SDS011;2272;49.226;8.108;2023-02-28T03:20:17;3.80;;;3.50;;
4519;SDS011;2272;49.226;8.108;2023-02-28T03:22:52;4.77;;;4.30;;
4519;SDS011;2272;49.226;8.108;2023-02-28T03:25:28;3.83;;;3.47;;
4519;SDS011;2272;49.226;8.108;2023-02-28T03:28:00;5.17;;;4.27;;
4519;SDS011;2272;49.226;8.108;2023-02-28T03:30:33;4.77;;;4.00;;
4519;SDS011;2272;49.226;8.108;2023-02-28T03:33:06;3.50;;;3.30;;
4519;SDS011;2272;49.226;8.108;2023-02-28T03:35:38;3.70;;;3.40;;
4519;SDS011;2272;49.226;8.108;2023-02-28T03:38:09;7.00;;;3.57;;
4519;SDS011;2272;49.226;8.108;2023-02-28T03:40:41;4.53;;;4.23;;
4519;SDS011;2272;49.226;8.108;2023-02-28T03:43:14;10.03;;;4.67;;
4519;SDS011;2272;49.226;8.108;2023-02-28T03:45:47;3.80;;;3.30;;
4519;SDS011;2272;49.226;8.108;2023-02-28T03:48:18;4.37;;;4.00;;
4519;SDS011;2272;49.226;8.108;2023-02-28T03:50:50;4.60;;;4.20;;
4519;SDS011;2272;49.226;8.108;2023-02-28T03:53:21;4.47;;;4.07;;
4519;SDS011;2272;49.226;8.108;2023-02-28T03:55:56;4.53;;;4.00;;
4519;SDS011;2272;49.226;8.108;2023-02-28T03:58:28;4.60;;;3.97;;
4519;SDS011;2272;49.226;8.108;2023-02-28T04:01:03;12.40;;;3.67;;
4519;SDS011;2272;49.226;8.108;2023-02-28T04:03:35;4.90;;;4.50;;
4519;SDS011;2272;49.226;8.108;2023-02-28T04:06:03;4.17;;;3.83;;
4519;SDS011;2272;49.226;8.108;2023-02-28T04:08:31;4.10;;;3.77;;
4519;SDS011;2272;49.226;8.108;2023-02-28T04:11:00;4.30;;;3.90;;
4519;SDS011;2272;49.226;8.108;2023-02-28T04:13:31;5.13;;;4.10;;
4519;SDS011;2272;49.226;8.108;2023-02-28T04:15:58;9.60;;;4.90;;
4519;SDS011;2272;49.226;8.108;2023-02-28T04:18:25;5.40;;;4.30;;
4519;SDS011;2272;49.226;8.108;2023-02-28T04:20:51;3.57;;;3.30;;
4519;SDS011;2272;49.226;8.108;2023-02-28T04:23:19;3.90;;;3.60;;
4519;SDS011;2272;49.226;8.108;2023-02-28T04:25:46;8.93;;;4.80;;
4519;SDS011;2272;49.226;8.108;2023-02-28T04:28:13;5.40;;;4.10;;
4519;SDS011;2272;49.226;8.108;2023-02-28T04:30:39;8.57;;;5.80;;
4519;SDS011;2272;49.226;8.108;2023-02-28T04:33:06;5.00;;;4.60;;
4519;SDS011;2272;49.226;8.108;2023-02-28T04:35:33;4.70;;;4.30;;
4519;SDS011;2272;49.226;8.108;2023-02-28T04:37:59;5.17;;;4.50;;
4519;SDS011;2272;49.226;8.108;2023-02-28T04:40:27;10.10;;;4.47;;
4519;SDS011;2272;49.226;8.108;2023-02-28T04:42:54;6.17;;;4.13;;
4519;SDS011;2272;49.226;8.108;2023-02-28T04:45:21;4.87;;;4.40;;
4519;SDS011;2272;49.226;8.108;2023-02-28T04:47:47;6.60;;;4.80;;
4519;SDS011;2272;49.226;8.108;2023-02-28T04:50:14;5.40;;;3.90;;
4519;SDS011;2272;49.226;8.108;2023-02-28T04:52:41;6.63;;;4.70;;
4519;SDS011;2272;49.226;8.108;2023-02-28T04:55:08;6.60;;;4.30;;
4519;SDS011;2272;49.226;8.108;2023-02-28T04:57:36;6.73;;;3.80;;
4519;SDS011;2272;49.226;8.108;2023-02-28T05:00:03;6.40;;;4.73;;
4519;SDS011;2272;49.226;8.108;2023-02-28T05:02:36;6.57;;;4.40;;
4519;SDS011;2272;49.226;8.108;2023-02-28T05:05:03;3.93;;;3.63;;
4519;SDS011;2272;49.226;8.108;2023-02-28T05:07:30;5.43;;;3.93;;
4519;SDS011;2272;49.226;8.108;2023-02-28T05:09:57;4.17;;;3.83;;
4519;SDS011;2272;49.226;8.108;2023-02-28T05:12:23;5.47;;;4.20;;
4519;SDS011;2272;49.226;8.108;2023-02-28T05:14:51;5.73;;;4.60;;
4519;SDS011;2272;49.226;8.108;2023-02-28T05:17:18;5.13;;;4.03;;
4519;SDS011;2272;49.226;8.108;2023-02-28T05:19:45;4.50;;;4.10;;
4519;SDS011;2272;49.226;8.108;2023-02-28T05:22:12;6.17;;;4.27;;
4519;SDS011;2272;49.226;8.108;2023-02-28T05:24:41;4.50;;;4.20;;
4519;SDS011;2272;49.226;8.108;2023-02-28T05:27:08;4.00;;;3.70;;
4519;SDS011;2272;49.226;8.108;2023-02-28T05:29:35;4.03;;;3.63;;
4519;SDS011;2272;49.226;8.108;2023-02-28T05:32:08;5.00;;;4.50;;
4519;SDS011;2272;49.226;8.108;2023-02-28T05:34:35;6.37;;;4.80;;
4519;SDS011;2272;49.226;8.108;2023-02-28T05:37:02;6.13;;;4.13;;
4519;SDS011;2272;49.226;8.108;2023-02-28T05:39:29;4.10;;;3.80;;
4519;SDS011;2272;49.226;8.108;2023-02-28T05:41:56;4.93;;;4.30;;
4519;SDS011;2272;49.226;8.108;2023-02-28T05:44:22;5.00;;;4.37;;
4519;SDS011;2272;49.226;8.108;2023-02-28T05:46:49;7.60;;;4.00;;
4519;SDS011;2272;49.226;8.108;2023-02-28T05:49:17;5.77;;;4.07;;
4519;SDS011;2272;49.226;8.108;2023-02-28T05:51:44;4.43;;;4.03;;
4519;SDS011;2272;49.226;8.108;2023-02-28T05:54:10;4.63;;;4.27;;
4519;SDS011;2272;49.226;8.108;2023-02-28T05:56:37;4.70;;;4.17;;
4519;SDS011;2272;49.226;8.108;2023-02-28T05:59:05;6.30;;;4.20;;
4519;SDS011;2272;49.226;8.108;2023-02-28T06:01:33;5.27;;;3.90;;
4519;SDS011;2272;49.226;8.108;2023-02-28T06:04:02;4.57;;;4.13;;
4519;SDS011;2272;49.226;8.108;2023-02-28T06:06:31;7.10;;;4.13;;
4519;SDS011;2272;49.226;8.108;2023-02-28T06:08:59;5.67;;;4.13;;
4519;SDS011;2272;49.226;8.108;2023-02-28T06:11:25;5.07;;;4.07;;
4519;SDS011;2272;49.226;8.108;2023-02-28T06:13:53;4.83;;;4.33;;
4519;SDS011;2272;49.226;8.108;2023-02-28T06:16:21;5.03;;;4.23;;
4519;SDS011;2272;49.226;8.108;2023-02-28T06:18:48;4.90;;;4.03;;
4519;SDS011;2272;49.226;8.108;2023-02-28T06:21:14;6.83;;;4.37;;
4519;SDS011;2272;49.226;8.108;2023-02-28T06:23:42;4.47;;;4.07;;
4519;SDS011;2272;49.226;8.108;2023-02-28T06:26:09;5.23;;;4.73;;
4519;SDS011;2272;49.226;8.108;2023-02-28T06:28:36;4.83;;;4.33;;
4519;SDS011;2272;49.226;8.108;2023-02-28T06:31:05;4.90;;;4.50;;
4519;SDS011;2272;49.226;8.108;2023-02-28T06:33:33;5.30;;;4.80;;
4519;SDS011;2272;49.226;8.108;2023-02-28T06:35:59;4.37;;;4.03;;
4519;SDS011;2272;49.226;8.108;2023-02-28T06:38:26;5.33;;;4.93;;
4519;SDS011;2272;49.226;8.108;2023-02-28T06:40:54;5.00;;;4.50;;
4519;SDS011;2272;49.226;8.108;2023-02-28T06:43:22;7.53;;;5.30;;
4519;SDS011;2272;49.226;8.108;2023-02-28T06:45:49;5.70;;;4.13;;
4519;SDS011;2272;49.226;8.108;2023-02-28T06:48:16;4.73;;;4.10;;
4519;SDS011;2272;49.226;8.108;2023-02-28T06:50:43;9.40;;;5.50;;
4519;SDS011;2272;49.226;8.108;2023-02-28T06:53:10;4.27;;;3.97;;
4519;SDS011;2272;49.226;8.108;2023-02-28T06:55:37;4.90;;;4.40;;
4519;SDS011;2272;49.226;8.108;2023-02-28T06:58:05;5.23;;;4.73;;
4519;SDS011;2272;49.226;8.108;2023-02-28T07:00:39;6.60;;;4.67;;
4519;SDS011;2272;49.226;8.108;2023-02-28T07:03:06;7.43;;;4.70;;
4519;SDS011;2272;49.226;8.108;2023-02-28T07:05:34;6.57;;;5.40;;
4519;SDS011;2272;49.226;8.108;2023-02-28T07:08:01;5.13;;;4.63;;
4519;SDS011;2272;49.226;8.108;2023-02-28T07:10:28;10.17;;;5.27;;
4519;SDS011;2272;49.226;8.108;2023-02-28T07:12:54;4.63;;;3.90;;
4519;SDS011;2272;49.226;8.108;2023-02-28T07:15:22;6.00;;;3.60;;
4519;SDS011;2272;49.226;8.108;2023-02-28T07:17:49;5.17;;;4.73;;
4519;SDS011;2272;49.226;8.108;2023-02-28T07:20:16;6.53;;;4.80;;
4519;SDS011;2272;49.226;8.108;2023-02-28T07:22:42;6.10;;;4.90;;
4519;SDS011;2272;49.226;8.108;2023-02-28T07:25:09;4.93;;;4.50;;
4519;SDS011;2272;49.226;8.108;2023-02-28T07:27:36;4.97;;;4.40;;
4519;SDS011;2272;49.226;8.108;2023-02-28T07:30:03;3.73;;;3.50;;
4519;SDS011;2272;49.226;8.108;2023-02-28T07:32:32;6.37;;;5.17;;
4519;SDS011;2272;49.226;8.108;2023-02-28T07:35:02;5.73;;;5.13;;
4519;SDS011;2272;49.226;8.108;2023-02-28T07:37:29;6.17;;;5.00;;
4519;SDS011;2272;49.226;8.108;2023-02-28T07:40:01;4.93;;;4.63;;
4519;SDS011;2272;49.226;8.108;2023-02-28T07:42:31;6.83;;;5.17;;
4519;SDS011;2272;49.226;8.108;2023-02-28T07:44:58;5.97;;;5.37;;
4519;SDS011;2272;49.226;8.108;2023-02-28T07:47:25;7.03;;;5.33;;
4519;SDS011;2272;49.226;8.108;2023-02-28T07:49:53;7.23;;;5.70;;
4519;SDS011;2272;49.226;8.108;2023-02-28T07:52:19;6.87;;;5.67;;
4519;SDS011;2272;49.226;8.108;2023-02-28T07:54:48;7.80;;;5.23;;
4519;SDS011;2272;49.226;8.108;2023-02-28T07:57:14;7.70;;;4.90;;
4519;SDS011;2272;49.226;8.108;2023-02-28T07:59:41;10.03;;;6.40;;
4519;SDS011;2272;49.226;8.108;2023-02-28T08:02:09;12.83;;;4.87;;
4519;SDS011;2272;49.226;8.108;2023-02-28T08:04:38;4.90;;;4.30;;
4519;SDS011;2272;49.226;8.108;2023-02-28T08:07:06;6.73;;;5.10;;
4519;SDS011;2272;49.226;8.108;2023-02-28T08:09:35;9.50;;;5.37;;
4519;SDS011;2272;49.226;8.108;2023-02-28T08:12:01;5.60;;;5.10;;
4519;SDS011;2272;49.226;8.108;2023-02-28T08:14:28;6.77;;;4.87;;
4519;SDS011;2272;49.226;8.108;2023-02-28T08:16:55;5.67;;;5.17;;
4519;SDS011;2272;49.226;8.108;2023-02-28T08:19:22;7.53;;;5.33;;
4519;SDS011;2272;49.226;8.108;2023-02-28T08:21:48;6.00;;;4.80;;
4519;SDS011;2272;49.226;8.108;2023-02-28T08:24:16;8.33;;;4.90;;
4519;SDS011;2272;49.226;8.108;2023-02-28T08:26:43;5.80;;;5.30;;
4519;SDS011;2272;49.226;8.108;2023-02-28T08:29:10;6.23;;;5.30;;
4519;SDS011;2272;49.226;8.108;2023-02-28T08:31:36;5.70;;;5.10;;
4519;SDS011;2272;49.226;8.108;2023-02-28T08:34:04;10.00;;;5.50;;
4519;SDS011;2272;49.226;8.108;2023-02-28T08:36:31;8.93;;;5.37;;
4519;SDS011;2272;49.226;8.108;2023-02-28T08:38:58;8.83;;;4.80;;
4519;SDS011;2272;49.226;8.108;2023-02-28T08:41:26;10.07;;;5.10;;
4519;SDS011;2272;49.226;8.108;2023-02-28T08:43:53;5.90;;;5.30;;
4519;SDS011;2272;49.226;8.108;2023-02-28T08:46:20;13.03;;;5.73;;
4519;SDS011;2272;49.226;8.108;2023-02-28T08:48:47;7.03;;;5.67;;
4519;SDS011;2272;49.226;8.108;2023-02-28T08:51:17;5.23;;;4.63;;
4519;SDS011;2272;49.226;8.108;2023-02-28T08:53:50;7.17;;;6.10;;
4519;SDS011;2272;49.226;8.108;2023-02-28T08:56:18;5.37;;;4.87;;
4519;SDS011;2272;49.226;8.108;2023-02-28T08:58:47;7.50;;;6.00;;
4519;SDS011;2272;49.226;8.108;2023-02-28T09:01:15;5.73;;;5.13;;
4519;SDS011;2272;49.226;8.108;2023-02-28T09:03:44;23.83;;;6.07;;
4519;SDS011;2272;49.226;8.108;2023-02-28T09:06:13;5.90;;;5.17;;
4519;SDS011;2272;49.226;8.108;2023-02-28T09:08:41;10.13;;;6.20;;
4519;SDS011;2272;49.226;8.108;2023-02-28T09:11:08;5.93;;;5.33;;
4519;SDS011;2272;49.226;8.108;2023-02-28T09:13:35;6.23;;;5.27;;
4519;SDS011;2272;49.226;8.108;2023-02-28T09:16:04;8.70;;;6.17;;
4519;SDS011;2272;49.226;8.108;2023-02-28T09:18:33;6.03;;;5.43;;
4519;SDS011;2272;49.226;8.108;2023-02-28T09:21:02;8.73;;;6.47;;
4519;SDS011;2272;49.226;8.108;2023-02-28T09:23:29;13.03;;;5.30;;
4519;SDS011;2272;49.226;8.108;2023-02-28T09:25:56;12.63;;;5.27;;
4519;SDS011;2272;49.226;8.108;2023-02-28T09:28:23;8.43;;;6.37;;
4519;SDS011;2272;49.226;8.108;2023-02-28T09:30:51;12.43;;;5.47;;
4519;SDS011;2272;49.226;8.108;2023-02-28T09:33:21;14.73;;;7.03;;
4519;SDS011;2272;49.226;8.108;2023-02-28T09:35:48;10.40;;;5.83;;
4519;SDS011;2272;49.226;8.108;2023-02-28T09:38:16;7.90;;;6.10;;
4519;SDS011;2272;49.226;8.108;2023-02-28T09:40:45;10.53;;;7.17;;
4519;SDS011;2272;49.226;8.108;2023-02-28T09:43:15;11.90;;;6.47;;
4519;SDS011;2272;49.226;8.108;2023-02-28T09:45:44;11.27;;;6.70;;
4519;SDS011;2272;49.226;8.108;2023-02-28T09:48:15;10.30;;;6.63;;
4519;SDS011;2272;49.226;8.108;2023-02-28T09:50:47;8.20;;;7.00;;
4519;SDS011;2272;49.226;8.108;2023-02-28T09:53:19;8.40;;;7.20;;
4519;SDS011;2272;49.226;8.108;2023-02-28T09:55:52;7.70;;;6.33;;
4519;SDS011;2272;49.226;8.108;2023-02-28T09:58:23;10.10;;;6.87;;
4519;SDS011;2272;49.226;8.108;2023-02-28T10:00:57;9.17;;;6.80;;
4519;SDS011;2272;49.226;8.108;2023-02-28T10:03:30;9.83;;;6.80;;
4519;SDS011;2272;49.226;8.108;2023-02-28T10:06:04;38.43;;;6.60;;
4519;SDS011;2272;49.226;8.108;2023-02-28T10:08:37;7.57;;;6.30;;
4519;SDS011;2272;49.226;8.108;2023-02-28T10:11:10;8.80;;;6.90;;
4519;SDS011;2272;49.226;8.108;2023-02-28T10:13:43;8.33;;;6.47;;
4519;SDS011;2272;49.226;8.108;2023-02-28T10:16:19;10.13;;;6.70;;
4519;SDS011;2272;49.226;8.108;2023-02-28T10:18:51;8.50;;;6.30;;
4519;SDS011;2272;49.226;8.108;2023-02-28T10:21:23;8.60;;;6.50;;
4519;SDS011;2272;49.226;8.108;2023-02-28T10:23:56;6.40;;;5.80;;
4519;SDS011;2272;49.226;8.108;2023-02-28T10:26:29;7.43;;;6.30;;
4519;SDS011;2272;49.226;8.108;2023-02-28T10:28:57;7.87;;;6.70;;
4519;SDS011;2272;49.226;8.108;2023-02-28T10:31:24;9.47;;;6.80;;
4519;SDS011;2272;49.226;8.108;2023-02-28T10:33:51;10.00;;;7.23;;
4519;SDS011;2272;49.226;8.108;2023-02-28T10:36:19;12.03;;;7.20;;
4519;SDS011;2272;49.226;8.108;2023-02-28T10:38:48;7.40;;;5.63;;
4519;SDS011;2272;49.226;8.108;2023-02-28T10:41:16;10.23;;;6.70;;
4519;SDS011;2272;49.226;8.108;2023-02-28T10:43:53;9.10;;;6.80;;
4519;SDS011;2272;49.226;8.108;2023-02-28T10:46:39;7.43;;;6.33;;
4519;SDS011;2272;49.226;8.108;2023-02-28T10:49:12;7.57;;;6.30;;
4519;SDS011;2272;49.226;8.108;2023-02-28T10:51:41;9.20;;;6.27;;
4519;SDS011;2272;49.226;8.108;2023-02-28T10:54:15;8.47;;;5.60;;
4519;SDS011;2272;49.226;8.108;2023-02-28T10:56:44;7.67;;;5.90;;
4519;SDS011;2272;49.226;8.108;2023-02-28T10:59:26;8.40;;;6.13;;
4519;SDS011;2272;49.226;8.108;2023-02-28T11:01:55;10.13;;;6.30;;
4519;SDS011;2272;49.226;8.108;2023-02-28T11:04:32;7.33;;;6.57;;
4519;SDS011;2272;49.226;8.108;2023-02-28T11:07:03;7.93;;;6.27;;
4519;SDS011;2272;49.226;8.108;2023-02-28T11:09:34;12.00;;;6.40;;
4519;SDS011;2272;49.226;8.108;2023-02-28T11:12:04;10.03;;;7.00;;
4519;SDS011;2272;49.226;8.108;2023-02-28T11:14:35;9.40;;;6.00;;
4519;SDS011;2272;49.226;8.108;2023-02-28T11:17:11;8.90;;;6.43;;
4519;SDS011;2272;49.226;8.108;2023-02-28T11:19:45;12.70;;;7.67;;
4519;SDS011;2272;49.226;8.108;2023-02-28T11:22:16;9.33;;;6.67;;
4519;SDS011;2272;49.226;8.108;2023-02-28T11:24:48;9.27;;;6.67;;
4519;SDS011;2272;49.226;8.108;2023-02-28T11:32:59;8.30;;;6.93;;
4519;SDS011;2272;49.226;8.108;2023-02-28T11:35:26;12.10;;;8.37;;
4519;SDS011;2272;49.226;8.108;2023-02-28T11:37:57;8.20;;;7.20;;
4519;SDS011;2272;49.226;8.108;2023-02-28T11:40:28;11.70;;;6.50;;
4519;SDS011;2272;49.226;8.108;2023-02-28T11:42:59;8.57;;;6.10;;
4519;SDS011;2272;49.226;8.108;2023-02-28T11:45:55;9.37;;;6.83;;
4519;SDS011;2272;49.226;8.108;2023-02-28T11:48:42;8.13;;;6.40;;
4519;SDS011;2272;49.226;8.108;2023-02-28T11:51:18;15.43;;;7.23;;
4519;SDS011;2272;49.226;8.108;2023-02-28T11:56:56;7.93;;;6.90;;
4519;SDS011;2272;49.226;8.108;2023-02-28T11:59:33;10.03;;;7.30;;
4519;SDS011;2272;49.226;8.108;2023-02-28T12:05:04;9.50;;;6.80;;
4519;SDS011;2272;49.226;8.108;2023-02-28T12:07:38;11.00;;;7.70;;
4519;SDS011;2272;49.226;8.108;2023-02-28T12:10:16;9.63;;;7.50;;
4519;SDS011;2272;49.226;8.108;2023-02-28T12:12:50;8.10;;;6.70;;
4519;SDS011;2272;49.226;8.108;2023-02-28T12:15:44;11.77;;;7.10;;
4519;SDS011;2272;49.226;8.108;2023-02-28T12:18:24;10.30;;;6.90;;
4519;SDS011;2272;49.226;8.108;2023-02-28T12:21:02;10.00;;;7.40;;
4519;SDS011;2272;49.226;8.108;2023-02-28T12:23:44;10.77;;;7.50;;
4519;SDS011;2272;49.226;8.108;2023-02-28T12:26:22;11.30;;;8.37;;
4519;SDS011;2272;49.226;8.108;2023-02-28T12:28:54;11.70;;;7.70;;
4519;SDS011;2272;49.226;8.108;2023-02-28T12:31:26;11.87;;;8.40;;
4519;SDS011;2272;49.226;8.108;2023-02-28T12:33:57;10.87;;;7.83;;
4519;SDS011;2272;49.226;8.108;2023-02-28T12:36:27;10.13;;;8.10;;
4519;SDS011;2272;49.226;8.108;2023-02-28T12:38:55;11.73;;;8.87;;
4519;SDS011;2272;49.226;8.108;2023-02-28T12:41:27;9.33;;;7.53;;
4519;SDS011;2272;49.226;8.108;2023-02-28T12:44:02;10.63;;;7.87;;
4519;SDS011;2272;49.226;8.108;2023-02-28T12:46:35;13.20;;;8.70;;
4519;SDS011;2272;49.226;8.108;2023-02-28T12:49:06;10.43;;;8.00;;
4519;SDS011;2272;49.226;8.108;2023-02-28T12:51:36;14.73;;;9.33;;
4519;SDS011;2272;49.226;8.108;2023-02-28T12:54:09;9.00;;;7.93;;
4519;SDS011;2272;49.226;8.108;2023-02-28T12:56:46;9.13;;;7.70;;
4519;SDS011;2272;49.226;8.108;2023-02-28T12:59:22;8.53;;;7.30;;
4519;SDS011;2272;49.226;8.108;2023-02-28T13:01:56;9.80;;;7.60;;
4519;SDS011;2272;49.226;8.108;2023-02-28T13:04:41;11.40;;;7.50;;
4519;SDS011;2272;49.226;8.108;2023-02-28T13:07:31;11.20;;;8.53;;
4519;SDS011;2272;49.226;8.108;2023-02-28T13:10:15;9.67;;;7.30;;
4519;SDS011;2272;49.226;8.108;2023-02-28T13:12:47;10.47;;;7.37;;
4519;SDS011;2272;49.226;8.108;2023-02-28T13:15:18;10.27;;;7.40;;
4519;SDS011;2272;49.226;8.108;2023-02-28T13:17:49;19.63;;;9.27;;
4519;SDS011;2272;49.226;8.108;2023-02-28T13:20:18;14.97;;;8.13;;
4519;SDS011;2272;49.226;8.108;2023-02-28T13:22:47;13.23;;;7.90;;
4519;SDS011;2272;49.226;8.108;2023-02-28T13:31:33;12.87;;;9.00;;
4519;SDS011;2272;49.226;8.108;2023-02-28T13:34:38;9.00;;;7.70;;
4519;SDS011;2272;49.226;8.108;2023-02-28T13:40:06;16.00;;;7.37;;
4519;SDS011;2272;49.226;8.108;2023-02-28T13:42:48;16.43;;;7.97;;
4519;SDS011;2272;49.226;8.108;2023-02-28T13:45:22;9.83;;;7.90;;
4519;SDS011;2272;49.226;8.108;2023-02-28T13:47:53;15.07;;;7.87;;
4519;SDS011;2272;49.226;8.108;2023-02-28T13:50:24;10.50;;;8.70;;
4519;SDS011;2272;49.226;8.108;2023-02-28T13:56:06;10.60;;;8.27;;
4519;SDS011;2272;49.226;8.108;2023-02-28T13:58:48;9.90;;;7.83;;
4519;SDS011;2272;49.226;8.108;2023-02-28T14:01:23;10.53;;;6.50;;
4519;SDS011;2272;49.226;8.108;2023-02-28T14:04:05;9.53;;;7.63;;
4519;SDS011;2272;49.226;8.108;2023-02-28T14:06:46;14.10;;;8.10;;
4519;SDS011;2272;49.226;8.108;2023-02-28T14:09:18;10.03;;;7.80;;
4519;SDS011;2272;49.226;8.108;2023-02-28T14:11:50;13.60;;;8.40;;
4519;SDS011;2272;49.226;8.108;2023-02-28T14:17:22;10.50;;;7.87;;
4519;SDS011;2272;49.226;8.108;2023-02-28T14:19:52;21.83;;;7.60;;
4519;SDS011;2272;49.226;8.108;2023-02-28T14:22:25;8.60;;;7.60;;
4519;SDS011;2272;49.226;8.108;2023-02-28T14:25:13;13.40;;;7.10;;
4519;SDS011;2272;49.226;8.108;2023-02-28T14:27:48;13.33;;;7.70;;
4519;SDS011;2272;49.226;8.108;2023-02-28T14:33:35;15.50;;;8.17;;
4519;SDS011;2272;49.226;8.108;2023-02-28T14:36:16;8.10;;;6.63;;
4519;SDS011;2272;49.226;8.108;2023-02-28T14:38:46;10.40;;;7.90;;
4519;SDS011;2272;49.226;8.108;2023-02-28T14:41:22;9.80;;;7.50;;
4519;SDS011;2272;49.226;8.108;2023-02-28T14:43:51;10.10;;;7.83;;
4519;SDS011;2272;49.226;8.108;2023-02-28T14:46:21;12.43;;;9.30;;
4519;SDS011;2272;49.226;8.108;2023-02-28T14:48:50;16.47;;;7.60;;
4519;SDS011;2272;49.226;8.108;2023-02-28T14:51:22;10.93;;;7.50;;
4519;SDS011;2272;49.226;8.108;2023-02-28T14:53:51;10.17;;;8.20;;
4519;SDS011;2272;49.226;8.108;2023-02-28T14:56:24;8.90;;;7.00;;
4519;SDS011;2272;49.226;8.108;2023-02-28T14:58:55;14.43;;;7.30;;
4519;SDS011;2272;49.226;8.108;2023-02-28T15:01:23;9.97;;;7.40;;
4519;SDS011;2272;49.226;8.108;2023-02-28T15:03:58;14.60;;;8.50;;
4519;SDS011;2272;49.226;8.108;2023-02-28T15:06:29;12.57;;;7.60;;
4519;SDS011;2272;49.226;8.108;2023-02-28T15:09:13;10.37;;;7.43;;
4519;SDS011;2272;49.226;8.108;2023-02-28T15:11:44;11.07;;;8.00;;
4519;SDS011;2272;49.226;8.108;2023-02-28T15:14:14;12.60;;;7.50;;
4519;SDS011;2272;49.226;8.108;2023-02-28T15:16:44;19.87;;;9.67;;
4519;SDS011;2272;49.226;8.108;2023-02-28T15:19:14;12.93;;;9.90;;
4519;SDS011;2272;49.226;8.108;2023-02-28T15:21:48;11.40;;;8.13;;
4519;SDS011;2272;49.226;8.108;2023-02-28T15:24:19;12.40;;;7.57;;
4519;SDS011;2272;49.226;8.108;2023-02-28T15:26:51;10.10;;;7.20;;
4519;SDS011;2272;49.226;8.108;2023-02-28T15:29:21;12.33;;;8.33;;
4519;SDS011;2272;49.226;8.108;2023-02-28T15:31:50;9.00;;;7.57;;
4519;SDS011;2272;49.226;8.108;2023-02-28T15:34:21;12.63;;;7.97;;
4519;SDS011;2272;49.226;8.108;2023-02-28T15:36:50;11.77;;;8.50;;
4519;SDS011;2272;49.226;8.108;2023-02-28T15:39:18;14.50;;;8.73;;
4519;SDS011;2272;49.226;8.108;2023-02-28T15:41:46;23.60;;;9.43;;
4519;SDS011;2272;49.226;8.108;2023-02-28T15:44:13;15.63;;;9.30;;
4519;SDS011;2272;49.226;8.108;2023-02-28T15:46:41;16.63;;;9.17;;
4519;SDS011;2272;49.226;8.108;2023-02-28T15:49:12;11.63;;;8.37;;
4519;SDS011;2272;49.226;8.108;2023-02-28T15:51:45;16.03;;;8.43;;
4519;SDS011;2272;49.226;8.108;2023-02-28T15:54:17;15.90;;;9.83;;
4519;SDS011;2272;49.226;8.108;2023-02-28T15:56:47;17.67;;;9.83;;
4519;SDS011;2272;49.226;8.108;2023-02-28T15:59:18;11.20;;;8.10;;
4519;SDS011;2272;49.226;8.108;2023-02-28T16:02:01;11.13;;;7.90;;
4519;SDS011;2272;49.226;8.108;2023-02-28T16:04:37;16.37;;;8.97;;
4519;SDS011;2272;49.226;8.108;2023-02-28T16:07:22;11.03;;;8.17;;
4519;SDS011;2272;49.226;8.108;2023-02-28T16:09:50;15.07;;;9.07;;